sensor_id;sensor_type;location;lat;lon;timestamp;P1;durP1;ratioP1;P2;durP2;ratioP2
22916;SDS011;11624;53.250;7.456;2023-04-15T00:00:07;18.27;;;7.37;;
22916;SDS011;11624;53.250;7.456;2023-04-15T00:02:39;18.25;;;6.63;;
22916;SDS011;11624;53.250;7.456;2023-04-15T00:05:07;19.97;;;7.50;;
22916;SDS011;11624;53.250;7.456;2023-04-15T00:07:36;17.50;;;6.93;;
22916;SDS011;11624;53.250;7.456;2023-04-15T00:10:04;15.40;;;7.00;;
22916;SDS011;11624;53.250;7.456;2023-04-15T00:12:35;15.83;;;6.37;;
22916;SDS011;11624;53.250;7.456;2023-04-15T00:15:03;18.77;;;6.80;;
22916;SDS011;11624;53.250;7.456;2023-04-15T00:17:32;17.57;;;6.67;;
22916;SDS011;11624;53.250;7.456;2023-04-15T00:20:00;17.43;;;6.30;;
22916;SDS011;11624;53.250;7.456;2023-04-15T00:22:29;16.73;;;7.13;;
22916;SDS011;11624;53.250;7.456;2023-04-15T00:24:57;16.23;;;6.67;;
22916;SDS011;11624;53.250;7.456;2023-04-15T00:27:25;15.90;;;6.87;;
22916;SDS011;11624;53.250;7.456;2023-04-15T00:29:55;16.73;;;6.53;;
22916;SDS011;11624;53.250;7.456;2023-04-15T00:32:23;19.60;;;6.67;;
22916;SDS011;11624;53.250;7.456;2023-04-15T00:34:51;19.70;;;6.90;;
22916;SDS011;11624;53.250;7.456;2023-04-15T00:37:19;15.50;;;6.20;;
22916;SDS011;11624;53.250;7.456;2023-04-15T00:39:50;16.17;;;7.07;;
22916;SDS011;11624;53.250;7.456;2023-04-15T00:42:18;16.40;;;7.17;;
22916;SDS011;11624;53.250;7.456;2023-04-15T00:44:47;15.87;;;7.20;;
22916;SDS011;11624;53.250;7.456;2023-04-15T00:47:16;17.33;;;6.63;;
22916;SDS011;11624;53.250;7.456;2023-04-15T00:49:45;19.40;;;7.50;;
22916;SDS011;11624;53.250;7.456;2023-04-15T00:52:13;18.90;;;7.20;;
22916;SDS011;11624;53.250;7.456;2023-04-15T00:54:41;16.50;;;7.23;;
22916;SDS011;11624;53.250;7.456;2023-04-15T00:57:09;16.77;;;7.00;;
22916;SDS011;11624;53.250;7.456;2023-04-15T00:59:38;15.43;;;6.47;;
22916;SDS011;11624;53.250;7.456;2023-04-15T01:02:06;17.53;;;7.03;;
22916;SDS011;11624;53.250;7.456;2023-04-15T01:04:36;16.67;;;6.90;;
22916;SDS011;11624;53.250;7.456;2023-04-15T01:07:04;17.43;;;6.67;;
22916;SDS011;11624;53.250;7.456;2023-04-15T01:09:32;17.50;;;6.57;;
22916;SDS011;11624;53.250;7.456;2023-04-15T01:12:01;16.63;;;6.77;;
22916;SDS011;11624;53.250;7.456;2023-04-15T01:14:29;16.83;;;7.10;;
22916;SDS011;11624;53.250;7.456;2023-04-15T01:16:58;16.57;;;6.80;;
22916;SDS011;11624;53.250;7.456;2023-04-15T01:19:26;15.97;;;7.00;;
22916;SDS011;11624;53.250;7.456;2023-04-15T01:21:56;18.77;;;7.27;;
22916;SDS011;11624;53.250;7.456;2023-04-15T01:24:24;18.70;;;7.33;;
22916;SDS011;11624;53.250;7.456;2023-04-15T01:26:55;17.87;;;6.80;;
22916;SDS011;11624;53.250;7.456;2023-04-15T01:29:23;18.83;;;8.27;;
22916;SDS011;11624;53.250;7.456;2023-04-15T01:31:53;16.27;;;7.17;;
22916;SDS011;11624;53.250;7.456;2023-04-15T01:34:24;18.03;;;7.13;;
22916;SDS011;11624;53.250;7.456;2023-04-15T01:36:53;17.40;;;7.43;;
22916;SDS011;11624;53.250;7.456;2023-04-15T01:39:21;20.90;;;8.17;;
22916;SDS011;11624;53.250;7.456;2023-04-15T01:41:49;21.90;;;9.23;;
22916;SDS011;11624;53.250;7.456;2023-04-15T01:44:19;20.07;;;8.20;;
22916;SDS011;11624;53.250;7.456;2023-04-15T01:46:47;18.17;;;8.27;;
22916;SDS011;11624;53.250;7.456;2023-04-15T01:49:15;20.07;;;8.43;;
22916;SDS011;11624;53.250;7.456;2023-04-15T01:51:43;18.90;;;8.60;;
22916;SDS011;11624;53.250;7.456;2023-04-15T01:54:11;17.83;;;8.63;;
22916;SDS011;11624;53.250;7.456;2023-04-15T01:56:39;20.17;;;8.83;;
22916;SDS011;11624;53.250;7.456;2023-04-15T01:59:08;20.10;;;8.50;;
22916;SDS011;11624;53.250;7.456;2023-04-15T02:01:38;20.20;;;8.73;;
22916;SDS011;11624;53.250;7.456;2023-04-15T02:04:06;22.67;;;9.50;;
22916;SDS011;11624;53.250;7.456;2023-04-15T02:06:41;20.73;;;9.10;;
22916;SDS011;11624;53.250;7.456;2023-04-15T02:09:10;20.53;;;9.63;;
22916;SDS011;11624;53.250;7.456;2023-04-15T02:11:38;23.80;;;9.77;;
22916;SDS011;11624;53.250;7.456;2023-04-15T02:14:06;20.13;;;9.43;;
22916;SDS011;11624;53.250;7.456;2023-04-15T02:16:35;23.10;;;9.00;;
22916;SDS011;11624;53.250;7.456;2023-04-15T02:19:04;21.07;;;9.23;;
22916;SDS011;11624;53.250;7.456;2023-04-15T02:21:36;21.03;;;9.57;;
22916;SDS011;11624;53.250;7.456;2023-04-15T02:24:04;21.90;;;9.67;;
22916;SDS011;11624;53.250;7.456;2023-04-15T02:26:32;20.97;;;9.50;;
22916;SDS011;11624;53.250;7.456;2023-04-15T02:29:00;22.27;;;9.77;;
22916;SDS011;11624;53.250;7.456;2023-04-15T02:31:29;22.40;;;10.00;;
22916;SDS011;11624;53.250;7.456;2023-04-15T02:33:59;28.07;;;10.10;;
22916;SDS011;11624;53.250;7.456;2023-04-15T02:36:31;25.63;;;10.50;;
22916;SDS011;11624;53.250;7.456;2023-04-15T02:39:00;24.53;;;11.30;;
22916;SDS011;11624;53.250;7.456;2023-04-15T02:41:28;23.77;;;11.37;;
22916;SDS011;11624;53.250;7.456;2023-04-15T02:43:57;25.63;;;10.70;;
22916;SDS011;11624;53.250;7.456;2023-04-15T02:46:26;24.30;;;10.60;;
22916;SDS011;11624;53.250;7.456;2023-04-15T02:48:55;25.33;;;11.07;;
22916;SDS011;11624;53.250;7.456;2023-04-15T02:51:25;28.97;;;10.93;;
22916;SDS011;11624;53.250;7.456;2023-04-15T02:53:58;27.37;;;11.73;;
22916;SDS011;11624;53.250;7.456;2023-04-15T02:56:27;27.77;;;12.03;;
22916;SDS011;11624;53.250;7.456;2023-04-15T02:58:56;28.03;;;12.17;;
22916;SDS011;11624;53.250;7.456;2023-04-15T03:01:24;24.00;;;11.13;;
22916;SDS011;11624;53.250;7.456;2023-04-15T03:03:52;29.03;;;12.27;;
22916;SDS011;11624;53.250;7.456;2023-04-15T03:06:21;30.87;;;12.13;;
22916;SDS011;11624;53.250;7.456;2023-04-15T03:08:51;26.27;;;11.80;;
22916;SDS011;11624;53.250;7.456;2023-04-15T03:11:19;26.73;;;11.53;;
22916;SDS011;11624;53.250;7.456;2023-04-15T03:13:48;26.70;;;12.27;;
22916;SDS011;11624;53.250;7.456;2023-04-15T03:16:30;29.43;;;12.83;;
22916;SDS011;11624;53.250;7.456;2023-04-15T03:18:58;26.73;;;12.47;;
22916;SDS011;11624;53.250;7.456;2023-04-15T03:21:27;30.90;;;13.07;;
22916;SDS011;11624;53.250;7.456;2023-04-15T03:23:57;33.10;;;12.40;;
22916;SDS011;11624;53.250;7.456;2023-04-15T03:26:26;31.17;;;12.87;;
22916;SDS011;11624;53.250;7.456;2023-04-15T03:28:58;30.37;;;12.87;;
22916;SDS011;11624;53.250;7.456;2023-04-15T03:31:27;30.87;;;12.97;;
22916;SDS011;11624;53.250;7.456;2023-04-15T03:33:55;29.40;;;13.53;;
22916;SDS011;11624;53.250;7.456;2023-04-15T03:36:23;29.37;;;12.60;;
22916;SDS011;11624;53.250;7.456;2023-04-15T03:38:52;32.57;;;13.73;;
22916;SDS011;11624;53.250;7.456;2023-04-15T03:41:22;33.17;;;13.93;;
22916;SDS011;11624;53.250;7.456;2023-04-15T03:43:51;32.60;;;13.27;;
22916;SDS011;11624;53.250;7.456;2023-04-15T03:46:19;36.77;;;14.90;;
22916;SDS011;11624;53.250;7.456;2023-04-15T03:48:47;32.20;;;13.37;;
22916;SDS011;11624;53.250;7.456;2023-04-15T03:51:15;31.90;;;13.77;;
22916;SDS011;11624;53.250;7.456;2023-04-15T03:53:43;35.30;;;15.43;;
22916;SDS011;11624;53.250;7.456;2023-04-15T03:56:11;40.23;;;14.33;;
22916;SDS011;11624;53.250;7.456;2023-04-15T03:58:40;39.83;;;16.30;;
22916;SDS011;11624;53.250;7.456;2023-04-15T04:01:08;38.80;;;14.67;;
22916;SDS011;11624;53.250;7.456;2023-04-15T04:03:37;37.70;;;16.13;;
22916;SDS011;11624;53.250;7.456;2023-04-15T04:06:05;33.57;;;14.13;;
22916;SDS011;11624;53.250;7.456;2023-04-15T04:08:33;35.77;;;14.70;;
22916;SDS011;11624;53.250;7.456;2023-04-15T04:11:01;37.47;;;15.37;;
22916;SDS011;11624;53.250;7.456;2023-04-15T04:13:29;35.10;;;15.13;;
22916;SDS011;11624;53.250;7.456;2023-04-15T04:15:59;40.33;;;15.70;;
22916;SDS011;11624;53.250;7.456;2023-04-15T04:18:27;36.47;;;14.63;;
22916;SDS011;11624;53.250;7.456;2023-04-15T04:20:55;34.43;;;14.77;;
22916;SDS011;11624;53.250;7.456;2023-04-15T04:23:24;40.77;;;15.00;;
22916;SDS011;11624;53.250;7.456;2023-04-15T04:25:52;36.53;;;14.93;;
22916;SDS011;11624;53.250;7.456;2023-04-15T04:28:20;38.57;;;15.80;;
22916;SDS011;11624;53.250;7.456;2023-04-15T04:30:48;34.73;;;14.33;;
22916;SDS011;11624;53.250;7.456;2023-04-15T04:33:17;34.57;;;14.23;;
22916;SDS011;11624;53.250;7.456;2023-04-15T04:35:46;43.07;;;15.30;;
22916;SDS011;11624;53.250;7.456;2023-04-15T04:38:14;33.37;;;15.17;;
22916;SDS011;11624;53.250;7.456;2023-04-15T04:40:42;41.77;;;16.43;;
22916;SDS011;11624;53.250;7.456;2023-04-15T04:43:10;31.57;;;15.23;;
22916;SDS011;11624;53.250;7.456;2023-04-15T04:45:38;39.97;;;15.77;;
22916;SDS011;11624;53.250;7.456;2023-04-15T04:48:06;38.43;;;16.30;;
22916;SDS011;11624;53.250;7.456;2023-04-15T04:50:37;44.23;;;17.33;;
22916;SDS011;11624;53.250;7.456;2023-04-15T04:53:05;37.23;;;15.73;;
22916;SDS011;11624;53.250;7.456;2023-04-15T04:55:33;43.90;;;17.13;;
22916;SDS011;11624;53.250;7.456;2023-04-15T04:58:02;42.70;;;16.13;;
22916;SDS011;11624;53.250;7.456;2023-04-15T05:00:30;40.30;;;15.70;;
22916;SDS011;11624;53.250;7.456;2023-04-15T05:02:58;46.63;;;16.47;;
22916;SDS011;11624;53.250;7.456;2023-04-15T05:05:26;43.30;;;17.23;;
22916;SDS011;11624;53.250;7.456;2023-04-15T05:07:56;42.07;;;16.93;;
22916;SDS011;11624;53.250;7.456;2023-04-15T05:10:24;44.60;;;16.23;;
22916;SDS011;11624;53.250;7.456;2023-04-15T05:12:52;39.70;;;15.97;;
22916;SDS011;11624;53.250;7.456;2023-04-15T05:15:20;37.43;;;15.50;;
22916;SDS011;11624;53.250;7.456;2023-04-15T05:17:48;42.33;;;16.30;;
22916;SDS011;11624;53.250;7.456;2023-04-15T05:20:17;40.57;;;16.63;;
22916;SDS011;11624;53.250;7.456;2023-04-15T05:22:45;43.00;;;17.40;;
22916;SDS011;11624;53.250;7.456;2023-04-15T05:25:14;42.30;;;17.07;;
22916;SDS011;11624;53.250;7.456;2023-04-15T05:27:43;38.33;;;16.77;;
22916;SDS011;11624;53.250;7.456;2023-04-15T05:30:11;43.77;;;17.27;;
22916;SDS011;11624;53.250;7.456;2023-04-15T05:32:39;37.30;;;16.43;;
22916;SDS011;11624;53.250;7.456;2023-04-15T05:35:08;39.07;;;16.27;;
22916;SDS011;11624;53.250;7.456;2023-04-15T05:37:36;39.17;;;17.37;;
22916;SDS011;11624;53.250;7.456;2023-04-15T05:40:04;33.60;;;15.67;;
22916;SDS011;11624;53.250;7.456;2023-04-15T05:42:35;37.83;;;16.13;;
22916;SDS011;11624;53.250;7.456;2023-04-15T05:45:04;35.37;;;14.63;;
22916;SDS011;11624;53.250;7.456;2023-04-15T05:47:34;34.77;;;14.57;;
22916;SDS011;11624;53.250;7.456;2023-04-15T05:50:03;31.27;;;14.10;;
22916;SDS011;11624;53.250;7.456;2023-04-15T05:52:32;32.20;;;13.93;;
22916;SDS011;11624;53.250;7.456;2023-04-15T05:55:00;32.77;;;14.20;;
22916;SDS011;11624;53.250;7.456;2023-04-15T05:57:28;32.27;;;14.43;;
22916;SDS011;11624;53.250;7.456;2023-04-15T05:59:57;31.30;;;14.23;;
22916;SDS011;11624;53.250;7.456;2023-04-15T06:02:25;28.43;;;13.33;;
22916;SDS011;11624;53.250;7.456;2023-04-15T06:04:54;26.47;;;12.03;;
22916;SDS011;11624;53.250;7.456;2023-04-15T06:07:23;29.63;;;13.37;;
22916;SDS011;11624;53.250;7.456;2023-04-15T06:09:51;24.63;;;12.38;;
22916;SDS011;11624;53.250;7.456;2023-04-15T06:12:19;29.42;;;12.48;;
22916;SDS011;11624;53.250;7.456;2023-04-15T06:14:47;25.67;;;11.95;;
22916;SDS011;11624;53.250;7.456;2023-04-15T06:17:16;24.10;;;11.40;;
22916;SDS011;11624;53.250;7.456;2023-04-15T06:19:44;24.27;;;12.13;;
22916;SDS011;11624;53.250;7.456;2023-04-15T06:22:12;27.60;;;11.98;;
22916;SDS011;11624;53.250;7.456;2023-04-15T06:24:41;23.15;;;11.70;;
22916;SDS011;11624;53.250;7.456;2023-04-15T06:27:09;22.85;;;10.82;;
22916;SDS011;11624;53.250;7.456;2023-04-15T06:29:37;24.17;;;11.35;;
22916;SDS011;11624;53.250;7.456;2023-04-15T06:32:05;22.33;;;10.30;;
22916;SDS011;11624;53.250;7.456;2023-04-15T06:34:35;22.45;;;10.45;;
22916;SDS011;11624;53.250;7.456;2023-04-15T06:37:03;23.42;;;11.40;;
22916;SDS011;11624;53.250;7.456;2023-04-15T06:39:31;21.85;;;10.25;;
22916;SDS011;11624;53.250;7.456;2023-04-15T06:41:59;20.10;;;9.90;;
22916;SDS011;11624;53.250;7.456;2023-04-15T06:44:28;22.45;;;10.57;;
22916;SDS011;11624;53.250;7.456;2023-04-15T06:46:59;18.88;;;8.63;;
22916;SDS011;11624;53.250;7.456;2023-04-15T06:49:27;20.23;;;8.45;;
22916;SDS011;11624;53.250;7.456;2023-04-15T06:51:57;17.38;;;8.07;;
22916;SDS011;11624;53.250;7.456;2023-04-15T06:54:26;17.35;;;8.02;;
22916;SDS011;11624;53.250;7.456;2023-04-15T06:56:54;16.98;;;7.82;;
22916;SDS011;11624;53.250;7.456;2023-04-15T06:59:22;18.08;;;7.07;;
22916;SDS011;11624;53.250;7.456;2023-04-15T07:01:50;16.52;;;7.35;;
22916;SDS011;11624;53.250;7.456;2023-04-15T07:04:18;18.83;;;7.38;;
22916;SDS011;11624;53.250;7.456;2023-04-15T07:06:46;18.35;;;7.50;;
22916;SDS011;11624;53.250;7.456;2023-04-15T07:09:16;17.80;;;7.53;;
22916;SDS011;11624;53.250;7.456;2023-04-15T07:11:45;17.13;;;6.85;;
22916;SDS011;11624;53.250;7.456;2023-04-15T07:14:13;17.10;;;7.25;;
22916;SDS011;11624;53.250;7.456;2023-04-15T07:16:41;19.65;;;7.10;;
22916;SDS011;11624;53.250;7.456;2023-04-15T07:19:09;15.95;;;6.45;;
22916;SDS011;11624;53.250;7.456;2023-04-15T07:21:37;15.43;;;6.43;;
22916;SDS011;11624;53.250;7.456;2023-04-15T07:24:07;14.35;;;5.57;;
22916;SDS011;11624;53.250;7.456;2023-04-15T07:26:37;14.38;;;6.25;;
22916;SDS011;11624;53.250;7.456;2023-04-15T07:29:05;14.52;;;6.70;;
22916;SDS011;11624;53.250;7.456;2023-04-15T07:31:33;15.93;;;6.40;;
22916;SDS011;11624;53.250;7.456;2023-04-15T07:34:02;13.45;;;6.03;;
22916;SDS011;11624;53.250;7.456;2023-04-15T07:36:31;13.50;;;6.00;;
22916;SDS011;11624;53.250;7.456;2023-04-15T07:38:59;15.30;;;6.13;;
22916;SDS011;11624;53.250;7.456;2023-04-15T07:41:29;14.93;;;6.03;;
22916;SDS011;11624;53.250;7.456;2023-04-15T07:43:59;14.50;;;5.95;;
22916;SDS011;11624;53.250;7.456;2023-04-15T07:46:27;14.80;;;5.70;;
22916;SDS011;11624;53.250;7.456;2023-04-15T07:48:55;13.57;;;5.68;;
22916;SDS011;11624;53.250;7.456;2023-04-15T07:51:23;15.35;;;6.10;;
22916;SDS011;11624;53.250;7.456;2023-04-15T07:53:51;15.25;;;5.32;;
22916;SDS011;11624;53.250;7.456;2023-04-15T07:56:20;13.73;;;5.00;;
22916;SDS011;11624;53.250;7.456;2023-04-15T07:58:48;14.93;;;5.35;;
22916;SDS011;11624;53.250;7.456;2023-04-15T08:01:18;15.63;;;5.45;;
22916;SDS011;11624;53.250;7.456;2023-04-15T08:03:46;11.70;;;4.43;;
22916;SDS011;11624;53.250;7.456;2023-04-15T08:06:14;13.25;;;5.63;;
22916;SDS011;11624;53.250;7.456;2023-04-15T08:08:43;12.20;;;4.65;;
22916;SDS011;11624;53.250;7.456;2023-04-15T08:11:11;15.23;;;5.13;;
22916;SDS011;11624;53.250;7.456;2023-04-15T08:13:39;14.82;;;5.18;;
22916;SDS011;11624;53.250;7.456;2023-04-15T08:16:20;11.40;;;4.40;;
22916;SDS011;11624;53.250;7.456;2023-04-15T08:18:55;12.20;;;4.82;;
22916;SDS011;11624;53.250;7.456;2023-04-15T08:21:23;14.80;;;5.18;;
22916;SDS011;11624;53.250;7.456;2023-04-15T08:23:53;12.25;;;4.88;;
22916;SDS011;11624;53.250;7.456;2023-04-15T08:26:22;11.35;;;4.60;;
22916;SDS011;11624;53.250;7.456;2023-04-15T08:28:50;13.00;;;4.35;;
22916;SDS011;11624;53.250;7.456;2023-04-15T08:31:18;11.85;;;4.75;;
22916;SDS011;11624;53.250;7.456;2023-04-15T08:33:48;11.70;;;4.68;;
22916;SDS011;11624;53.250;7.456;2023-04-15T08:36:19;11.13;;;4.30;;
22916;SDS011;11624;53.250;7.456;2023-04-15T08:38:47;13.27;;;4.97;;
22916;SDS011;11624;53.250;7.456;2023-04-15T08:41:17;12.80;;;4.60;;
22916;SDS011;11624;53.250;7.456;2023-04-15T08:43:51;13.38;;;4.50;;
22916;SDS011;11624;53.250;7.456;2023-04-15T08:46:21;13.07;;;4.38;;
22916;SDS011;11624;53.250;7.456;2023-04-15T08:48:51;15.65;;;5.03;;
22916;SDS011;11624;53.250;7.456;2023-04-15T08:51:24;11.50;;;4.28;;
22916;SDS011;11624;53.250;7.456;2023-04-15T08:53:53;11.18;;;4.40;;
22916;SDS011;11624;53.250;7.456;2023-04-15T08:56:23;13.30;;;4.85;;
22916;SDS011;11624;53.250;7.456;2023-04-15T08:58:53;12.48;;;4.53;;
22916;SDS011;11624;53.250;7.456;2023-04-15T09:01:21;10.48;;;4.30;;
22916;SDS011;11624;53.250;7.456;2023-04-15T09:03:51;11.13;;;3.97;;
22916;SDS011;11624;53.250;7.456;2023-04-15T09:06:21;14.60;;;4.20;;
22916;SDS011;11624;53.250;7.456;2023-04-15T09:08:50;11.80;;;4.00;;
22916;SDS011;11624;53.250;7.456;2023-04-15T09:11:19;11.13;;;4.20;;
22916;SDS011;11624;53.250;7.456;2023-04-15T09:13:49;9.93;;;3.75;;
22916;SDS011;11624;53.250;7.456;2023-04-15T09:16:17;9.90;;;3.53;;
22916;SDS011;11624;53.250;7.456;2023-04-15T09:18:46;9.82;;;3.97;;
22916;SDS011;11624;53.250;7.456;2023-04-15T09:21:16;13.75;;;3.67;;
22916;SDS011;11624;53.250;7.456;2023-04-15T09:23:54;9.20;;;3.83;;
22916;SDS011;11624;53.250;7.456;2023-04-15T09:26:33;10.43;;;3.67;;
22916;SDS011;11624;53.250;7.456;2023-04-15T09:29:04;9.00;;;3.28;;
22916;SDS011;11624;53.250;7.456;2023-04-15T09:31:33;10.57;;;3.38;;
22916;SDS011;11624;53.250;7.456;2023-04-15T09:34:02;8.13;;;3.15;;
22916;SDS011;11624;53.250;7.456;2023-04-15T09:36:37;9.02;;;3.30;;
22916;SDS011;11624;53.250;7.456;2023-04-15T09:39:18;8.18;;;3.38;;
22916;SDS011;11624;53.250;7.456;2023-04-15T09:41:47;9.32;;;3.05;;
22916;SDS011;11624;53.250;7.456;2023-04-15T09:44:32;8.82;;;3.30;;
22916;SDS011;11624;53.250;7.456;2023-04-15T09:47:01;8.85;;;3.28;;
22916;SDS011;11624;53.250;7.456;2023-04-15T09:49:29;8.82;;;3.08;;
22916;SDS011;11624;53.250;7.456;2023-04-15T09:52:00;10.07;;;3.10;;
22916;SDS011;11624;53.250;7.456;2023-04-15T09:54:35;9.95;;;2.78;;
22916;SDS011;11624;53.250;7.456;2023-04-15T09:57:04;8.23;;;3.28;;
22916;SDS011;11624;53.250;7.456;2023-04-15T09:59:33;8.45;;;3.20;;
22916;SDS011;11624;53.250;7.456;2023-04-15T10:02:03;7.10;;;3.03;;
22916;SDS011;11624;53.250;7.456;2023-04-15T10:04:34;11.60;;;3.08;;
22916;SDS011;11624;53.250;7.456;2023-04-15T10:07:05;10.38;;;3.33;;
22916;SDS011;11624;53.250;7.456;2023-04-15T10:09:35;11.00;;;3.13;;
22916;SDS011;11624;53.250;7.456;2023-04-15T10:12:05;10.98;;;3.28;;
22916;SDS011;11624;53.250;7.456;2023-04-15T10:14:34;10.88;;;3.25;;
22916;SDS011;11624;53.250;7.456;2023-04-15T10:17:04;10.70;;;3.58;;
22916;SDS011;11624;53.250;7.456;2023-04-15T10:19:36;9.90;;;3.13;;
22916;SDS011;11624;53.250;7.456;2023-04-15T10:22:06;11.15;;;3.00;;
22916;SDS011;11624;53.250;7.456;2023-04-15T10:24:35;10.23;;;2.72;;
22916;SDS011;11624;53.250;7.456;2023-04-15T10:27:05;9.85;;;2.95;;
22916;SDS011;11624;53.250;7.456;2023-04-15T10:29:34;8.48;;;2.95;;
22916;SDS011;11624;53.250;7.456;2023-04-15T10:32:03;7.75;;;2.85;;
22916;SDS011;11624;53.250;7.456;2023-04-15T10:34:32;11.35;;;3.00;;
22916;SDS011;11624;53.250;7.456;2023-04-15T10:37:01;11.02;;;3.15;;
22916;SDS011;11624;53.250;7.456;2023-04-15T10:39:41;7.38;;;2.67;;
22916;SDS011;11624;53.250;7.456;2023-04-15T10:42:11;9.40;;;2.90;;
22916;SDS011;11624;53.250;7.456;2023-04-15T10:44:41;9.65;;;2.80;;
22916;SDS011;11624;53.250;7.456;2023-04-15T10:47:10;10.95;;;2.75;;
22916;SDS011;11624;53.250;7.456;2023-04-15T10:49:43;11.05;;;2.90;;
22916;SDS011;11624;53.250;7.456;2023-04-15T10:52:14;12.45;;;2.95;;
22916;SDS011;11624;53.250;7.456;2023-04-15T10:54:45;9.75;;;2.72;;
22916;SDS011;11624;53.250;7.456;2023-04-15T10:57:14;9.52;;;2.92;;
22916;SDS011;11624;53.250;7.456;2023-04-15T11:00:01;11.35;;;2.90;;
22916;SDS011;11624;53.250;7.456;2023-04-15T11:02:37;8.35;;;2.95;;
22916;SDS011;11624;53.250;7.456;2023-04-15T11:05:07;7.65;;;2.85;;
22916;SDS011;11624;53.250;7.456;2023-04-15T11:07:36;9.43;;;2.95;;
22916;SDS011;11624;53.250;7.456;2023-04-15T11:13:25;13.00;;;2.70;;
22916;SDS011;11624;53.250;7.456;2023-04-15T11:15:57;12.30;;;2.92;;
22916;SDS011;11624;53.250;7.456;2023-04-15T11:18:28;6.93;;;2.58;;
22916;SDS011;11624;53.250;7.456;2023-04-15T11:20:59;8.80;;;3.05;;
22916;SDS011;11624;53.250;7.456;2023-04-15T11:23:33;10.10;;;2.75;;
22916;SDS011;11624;53.250;7.456;2023-04-15T11:26:03;8.07;;;2.30;;
22916;SDS011;11624;53.250;7.456;2023-04-15T11:28:37;9.27;;;2.75;;
22916;SDS011;11624;53.250;7.456;2023-04-15T11:31:07;9.57;;;3.08;;
22916;SDS011;11624;53.250;7.456;2023-04-15T11:33:52;8.27;;;2.78;;
22916;SDS011;11624;53.250;7.456;2023-04-15T11:36:25;14.15;;;3.05;;
22916;SDS011;11624;53.250;7.456;2023-04-15T11:38:56;10.68;;;2.80;;
22916;SDS011;11624;53.250;7.456;2023-04-15T11:41:25;9.10;;;2.88;;
22916;SDS011;11624;53.250;7.456;2023-04-15T11:43:54;9.93;;;3.00;;
22916;SDS011;11624;53.250;7.456;2023-04-15T11:46:27;10.90;;;2.90;;
22916;SDS011;11624;53.250;7.456;2023-04-15T11:48:57;11.45;;;2.60;;
22916;SDS011;11624;53.250;7.456;2023-04-15T11:51:25;12.75;;;2.95;;
22916;SDS011;11624;53.250;7.456;2023-04-15T11:53:59;12.73;;;2.47;;
22916;SDS011;11624;53.250;7.456;2023-04-15T11:56:28;10.90;;;2.67;;
22916;SDS011;11624;53.250;7.456;2023-04-15T11:58:58;7.07;;;2.33;;
22916;SDS011;11624;53.250;7.456;2023-04-15T12:01:31;9.25;;;2.40;;
22916;SDS011;11624;53.250;7.456;2023-04-15T12:04:00;8.38;;;2.55;;
22916;SDS011;11624;53.250;7.456;2023-04-15T12:06:31;8.55;;;2.63;;
22916;SDS011;11624;53.250;7.456;2023-04-15T12:09:03;14.13;;;2.65;;
22916;SDS011;11624;53.250;7.456;2023-04-15T12:11:39;11.85;;;2.58;;
22916;SDS011;11624;53.250;7.456;2023-04-15T12:14:11;11.50;;;3.08;;
22916;SDS011;11624;53.250;7.456;2023-04-15T12:16:47;9.30;;;2.67;;
22916;SDS011;11624;53.250;7.456;2023-04-15T12:19:21;7.97;;;2.53;;
22916;SDS011;11624;53.250;7.456;2023-04-15T12:21:52;12.15;;;2.80;;
22916;SDS011;11624;53.250;7.456;2023-04-15T12:24:26;8.48;;;2.55;;
22916;SDS011;11624;53.250;7.456;2023-04-15T12:26:55;7.80;;;2.63;;
22916;SDS011;11624;53.250;7.456;2023-04-15T12:29:26;10.57;;;2.60;;
22916;SDS011;11624;53.250;7.456;2023-04-15T12:31:56;12.35;;;2.90;;
22916;SDS011;11624;53.250;7.456;2023-04-15T12:34:26;11.55;;;2.83;;
22916;SDS011;11624;53.250;7.456;2023-04-15T12:36:56;12.40;;;3.17;;
22916;SDS011;11624;53.250;7.456;2023-04-15T12:39:26;14.50;;;2.92;;
22916;SDS011;11624;53.250;7.456;2023-04-15T12:41:56;13.52;;;3.30;;
22916;SDS011;11624;53.250;7.456;2023-04-15T12:44:27;11.27;;;3.50;;
22916;SDS011;11624;53.250;7.456;2023-04-15T12:46:56;10.77;;;3.05;;
22916;SDS011;11624;53.250;7.456;2023-04-15T12:49:26;12.60;;;3.50;;
22916;SDS011;11624;53.250;7.456;2023-04-15T12:51:55;14.38;;;3.20;;
22916;SDS011;11624;53.250;7.456;2023-04-15T12:54:26;12.75;;;3.40;;
22916;SDS011;11624;53.250;7.456;2023-04-15T12:56:55;12.02;;;3.30;;
22916;SDS011;11624;53.250;7.456;2023-04-15T12:59:23;13.73;;;3.63;;
22916;SDS011;11624;53.250;7.456;2023-04-15T13:01:53;15.35;;;3.70;;
22916;SDS011;11624;53.250;7.456;2023-04-15T13:04:22;18.40;;;3.75;;
22916;SDS011;11624;53.250;7.456;2023-04-15T13:06:51;11.98;;;2.97;;
22916;SDS011;11624;53.250;7.456;2023-04-15T13:09:19;15.20;;;3.92;;
22916;SDS011;11624;53.250;7.456;2023-04-15T13:11:48;16.00;;;3.47;;
22916;SDS011;11624;53.250;7.456;2023-04-15T13:14:17;14.30;;;3.78;;
22916;SDS011;11624;53.250;7.456;2023-04-15T13:16:46;12.45;;;3.85;;
22916;SDS011;11624;53.250;7.456;2023-04-15T13:19:15;13.00;;;3.63;;
22916;SDS011;11624;53.250;7.456;2023-04-15T13:21:44;16.73;;;3.85;;
22916;SDS011;11624;53.250;7.456;2023-04-15T13:24:12;13.30;;;3.42;;
22916;SDS011;11624;53.250;7.456;2023-04-15T13:26:41;13.50;;;3.50;;
22916;SDS011;11624;53.250;7.456;2023-04-15T13:29:09;11.82;;;3.53;;
22916;SDS011;11624;53.250;7.456;2023-04-15T13:31:39;11.93;;;3.65;;
22916;SDS011;11624;53.250;7.456;2023-04-15T13:34:07;11.38;;;3.30;;
22916;SDS011;11624;53.250;7.456;2023-04-15T13:36:37;11.52;;;3.47;;
22916;SDS011;11624;53.250;7.456;2023-04-15T13:39:05;13.20;;;3.70;;
22916;SDS011;11624;53.250;7.456;2023-04-15T13:41:36;13.27;;;3.55;;
22916;SDS011;11624;53.250;7.456;2023-04-15T13:44:05;16.45;;;3.47;;
22916;SDS011;11624;53.250;7.456;2023-04-15T13:46:33;16.80;;;3.67;;
22916;SDS011;11624;53.250;7.456;2023-04-15T13:49:03;13.23;;;3.33;;
22916;SDS011;11624;53.250;7.456;2023-04-15T13:51:31;10.80;;;3.30;;
22916;SDS011;11624;53.250;7.456;2023-04-15T13:54:03;12.82;;;3.22;;
22916;SDS011;11624;53.250;7.456;2023-04-15T13:56:31;12.70;;;3.28;;
22916;SDS011;11624;53.250;7.456;2023-04-15T13:59:00;11.65;;;3.45;;
22916;SDS011;11624;53.250;7.456;2023-04-15T14:01:28;10.73;;;3.33;;
22916;SDS011;11624;53.250;7.456;2023-04-15T14:03:57;13.13;;;3.67;;
22916;SDS011;11624;53.250;7.456;2023-04-15T14:06:25;12.75;;;3.75;;
22916;SDS011;11624;53.250;7.456;2023-04-15T14:08:54;15.20;;;4.47;;
22916;SDS011;11624;53.250;7.456;2023-04-15T14:11:24;16.73;;;4.15;;
22916;SDS011;11624;53.250;7.456;2023-04-15T14:13:53;11.48;;;4.05;;
22916;SDS011;11624;53.250;7.456;2023-04-15T14:16:21;15.95;;;4.32;;
22916;SDS011;11624;53.250;7.456;2023-04-15T14:18:49;18.73;;;5.10;;
22916;SDS011;11624;53.250;7.456;2023-04-15T14:21:17;14.43;;;4.82;;
22916;SDS011;11624;53.250;7.456;2023-04-15T14:23:46;17.92;;;5.25;;
22916;SDS011;11624;53.250;7.456;2023-04-15T14:26:14;18.38;;;5.45;;
22916;SDS011;11624;53.250;7.456;2023-04-15T14:28:44;21.05;;;6.32;;
22916;SDS011;11624;53.250;7.456;2023-04-15T14:31:13;18.48;;;5.88;;
22916;SDS011;11624;53.250;7.456;2023-04-15T14:33:42;18.92;;;5.82;;
22916;SDS011;11624;53.250;7.456;2023-04-15T14:36:10;19.55;;;6.63;;
22916;SDS011;11624;53.250;7.456;2023-04-15T14:38:39;20.38;;;7.03;;
22916;SDS011;11624;53.250;7.456;2023-04-15T14:41:07;18.60;;;6.80;;
22916;SDS011;11624;53.250;7.456;2023-04-15T14:43:36;23.90;;;7.78;;
22916;SDS011;11624;53.250;7.456;2023-04-15T14:46:06;24.80;;;7.50;;
22916;SDS011;11624;53.250;7.456;2023-04-15T14:48:35;29.40;;;8.27;;